sensor_id;sensor_type;location;lat;lon;timestamp;P1;durP1;ratioP1;P2;durP2;ratioP2
20884;SDS011;10602;48.000;9.654;2022-12-07T00:01:50;8.50;;;6.73;;
20884;SDS011;10602;48.000;9.654;2022-12-07T00:04:18;10.93;;;7.47;;
20884;SDS011;10602;48.000;9.654;2022-12-07T00:06:46;9.53;;;7.23;;
20884;SDS011;10602;48.000;9.654;2022-12-07T00:09:16;8.47;;;6.40;;
20884;SDS011;10602;48.000;9.654;2022-12-07T00:11:44;10.73;;;6.73;;
20884;SDS011;10602;48.000;9.654;2022-12-07T00:14:14;7.73;;;6.53;;
20884;SDS011;10602;48.000;9.654;2022-12-07T00:16:42;8.83;;;6.73;;
20884;SDS011;10602;48.000;9.654;2022-12-07T00:19:11;8.97;;;6.63;;
20884;SDS011;10602;48.000;9.654;2022-12-07T00:21:40;8.00;;;6.20;;
20884;SDS011;10602;48.000;9.654;2022-12-07T00:24:08;9.43;;;6.80;;
20884;SDS011;10602;48.000;9.654;2022-12-07T00:44:48;14.50;;;9.20;;
20884;SDS011;10602;48.000;9.654;2022-12-07T00:47:16;10.23;;;8.10;;
20884;SDS011;10602;48.000;9.654;2022-12-07T00:49:44;11.60;;;8.10;;
20884;SDS011;10602;48.000;9.654;2022-12-07T00:52:11;17.53;;;10.13;;
20884;SDS011;10602;48.000;9.654;2022-12-07T00:54:39;16.63;;;10.23;;
20884;SDS011;10602;48.000;9.654;2022-12-07T00:57:07;13.37;;;9.30;;
20884;SDS011;10602;48.000;9.654;2022-12-07T00:59:34;11.23;;;8.20;;
20884;SDS011;10602;48.000;9.654;2022-12-07T01:02:02;10.23;;;7.90;;
20884;SDS011;10602;48.000;9.654;2022-12-07T01:04:29;12.47;;;8.57;;
20884;SDS011;10602;48.000;9.654;2022-12-07T01:06:58;12.20;;;9.37;;
20884;SDS011;10602;48.000;9.654;2022-12-07T01:09:26;12.80;;;10.00;;
20884;SDS011;10602;48.000;9.654;2022-12-07T01:11:53;13.67;;;9.97;;
20884;SDS011;10602;48.000;9.654;2022-12-07T01:14:21;10.80;;;8.00;;
20884;SDS011;10602;48.000;9.654;2022-12-07T01:16:48;12.00;;;8.03;;
20884;SDS011;10602;48.000;9.654;2022-12-07T01:19:16;11.47;;;8.80;;
20884;SDS011;10602;48.000;9.654;2022-12-07T01:21:43;15.10;;;10.60;;
20884;SDS011;10602;48.000;9.654;2022-12-07T01:24:11;9.23;;;6.77;;
20884;SDS011;10602;48.000;9.654;2022-12-07T01:26:39;7.20;;;5.77;;
20884;SDS011;10602;48.000;9.654;2022-12-07T01:29:06;8.70;;;6.83;;
20884;SDS011;10602;48.000;9.654;2022-12-07T01:31:34;9.10;;;6.70;;
20884;SDS011;10602;48.000;9.654;2022-12-07T01:34:01;9.43;;;6.60;;
20884;SDS011;10602;48.000;9.654;2022-12-07T01:36:30;10.67;;;6.20;;
20884;SDS011;10602;48.000;9.654;2022-12-07T01:39:00;7.13;;;6.17;;
20884;SDS011;10602;48.000;9.654;2022-12-07T01:41:30;7.87;;;6.33;;
20884;SDS011;10602;48.000;9.654;2022-12-07T01:44:07;8.33;;;6.17;;
20884;SDS011;10602;48.000;9.654;2022-12-07T01:46:52;8.43;;;6.40;;
20884;SDS011;10602;48.000;9.654;2022-12-07T01:52:01;8.63;;;6.90;;
20884;SDS011;10602;48.000;9.654;2022-12-07T01:54:26;7.40;;;6.50;;
20884;SDS011;10602;48.000;9.654;2022-12-07T01:56:54;9.90;;;7.10;;
20884;SDS011;10602;48.000;9.654;2022-12-07T01:59:24;11.67;;;6.50;;
20884;SDS011;10602;48.000;9.654;2022-12-07T02:01:53;7.63;;;6.20;;
20884;SDS011;10602;48.000;9.654;2022-12-07T02:04:22;9.60;;;7.50;;
20884;SDS011;10602;48.000;9.654;2022-12-07T02:06:51;9.03;;;7.03;;
20884;SDS011;10602;48.000;9.654;2022-12-07T02:09:20;9.57;;;7.33;;
20884;SDS011;10602;48.000;9.654;2022-12-07T02:11:47;9.73;;;7.77;;
20884;SDS011;10602;48.000;9.654;2022-12-07T02:14:15;9.47;;;6.50;;
20884;SDS011;10602;48.000;9.654;2022-12-07T02:22:32;8.17;;;6.40;;
20884;SDS011;10602;48.000;9.654;2022-12-07T02:25:08;8.47;;;6.37;;
20884;SDS011;10602;48.000;9.654;2022-12-07T02:30:14;8.20;;;7.10;;
20884;SDS011;10602;48.000;9.654;2022-12-07T02:35:18;8.27;;;6.63;;
20884;SDS011;10602;48.000;9.654;2022-12-07T02:37:49;9.03;;;6.37;;
20884;SDS011;10602;48.000;9.654;2022-12-07T02:43:18;9.97;;;7.43;;
20884;SDS011;10602;48.000;9.654;2022-12-07T02:45:47;9.47;;;7.13;;
20884;SDS011;10602;48.000;9.654;2022-12-07T02:48:18;9.50;;;7.13;;
20884;SDS011;10602;48.000;9.654;2022-12-07T02:50:50;8.80;;;6.60;;
20884;SDS011;10602;48.000;9.654;2022-12-07T02:53:38;8.13;;;6.30;;
20884;SDS011;10602;48.000;9.654;2022-12-07T02:56:20;9.13;;;6.87;;
20884;SDS011;10602;48.000;9.654;2022-12-07T02:58:54;8.67;;;6.23;;
20884;SDS011;10602;48.000;9.654;2022-12-07T03:02:34;10.40;;;6.60;;
20884;SDS011;10602;48.000;9.654;2022-12-07T03:07:06;8.93;;;6.50;;
20884;SDS011;10602;48.000;9.654;2022-12-07T03:09:51;8.70;;;6.27;;
20884;SDS011;10602;48.000;9.654;2022-12-07T03:12:33;9.17;;;6.73;;
20884;SDS011;10602;48.000;9.654;2022-12-07T03:15:10;8.33;;;6.30;;
20884;SDS011;10602;48.000;9.654;2022-12-07T03:17:39;8.27;;;6.87;;
20884;SDS011;10602;48.000;9.654;2022-12-07T03:20:09;8.07;;;6.00;;
20884;SDS011;10602;48.000;9.654;2022-12-07T03:22:39;10.47;;;7.17;;
20884;SDS011;10602;48.000;9.654;2022-12-07T03:25:09;8.37;;;6.40;;
20884;SDS011;10602;48.000;9.654;2022-12-07T03:27:44;8.47;;;6.13;;
20884;SDS011;10602;48.000;9.654;2022-12-07T03:30:22;8.10;;;6.43;;
20884;SDS011;10602;48.000;9.654;2022-12-07T03:33:03;7.83;;;6.60;;
20884;SDS011;10602;48.000;9.654;2022-12-07T03:35:36;8.47;;;6.43;;
20884;SDS011;10602;48.000;9.654;2022-12-07T03:38:16;10.53;;;8.20;;
20884;SDS011;10602;48.000;9.654;2022-12-07T03:40:52;11.33;;;7.97;;
20884;SDS011;10602;48.000;9.654;2022-12-07T03:43:21;9.90;;;7.70;;
20884;SDS011;10602;48.000;9.654;2022-12-07T03:45:58;10.67;;;6.67;;
20884;SDS011;10602;48.000;9.654;2022-12-07T03:53:45;10.00;;;7.47;;
20884;SDS011;10602;48.000;9.654;2022-12-07T03:56:14;9.63;;;7.07;;
20884;SDS011;10602;48.000;9.654;2022-12-07T03:58:42;9.67;;;7.13;;
20884;SDS011;10602;48.000;9.654;2022-12-07T04:01:10;8.40;;;6.33;;
20884;SDS011;10602;48.000;9.654;2022-12-07T04:03:38;9.73;;;6.90;;
20884;SDS011;10602;48.000;9.654;2022-12-07T04:06:06;8.90;;;6.80;;
20884;SDS011;10602;48.000;9.654;2022-12-07T04:08:33;8.43;;;7.07;;
20884;SDS011;10602;48.000;9.654;2022-12-07T04:11:01;8.67;;;6.33;;
20884;SDS011;10602;48.000;9.654;2022-12-07T04:13:28;8.57;;;6.43;;
20884;SDS011;10602;48.000;9.654;2022-12-07T04:15:58;9.87;;;7.30;;
20884;SDS011;10602;48.000;9.654;2022-12-07T04:18:25;9.73;;;7.57;;
20884;SDS011;10602;48.000;9.654;2022-12-07T04:20:53;9.17;;;6.80;;
20884;SDS011;10602;48.000;9.654;2022-12-07T04:23:20;10.47;;;7.30;;
20884;SDS011;10602;48.000;9.654;2022-12-07T04:25:48;9.27;;;6.63;;
20884;SDS011;10602;48.000;9.654;2022-12-07T04:28:15;9.37;;;6.80;;
20884;SDS011;10602;48.000;9.654;2022-12-07T04:30:43;9.63;;;6.50;;
20884;SDS011;10602;48.000;9.654;2022-12-07T04:33:11;9.47;;;6.70;;
20884;SDS011;10602;48.000;9.654;2022-12-07T04:35:39;10.23;;;6.50;;
20884;SDS011;10602;48.000;9.654;2022-12-07T04:38:08;50.23;;;20.63;;
20884;SDS011;10602;48.000;9.654;2022-12-07T04:40:35;25.50;;;14.40;;
20884;SDS011;10602;48.000;9.654;2022-12-07T04:43:03;18.33;;;9.87;;
20884;SDS011;10602;48.000;9.654;2022-12-07T04:45:30;10.67;;;7.13;;
20884;SDS011;10602;48.000;9.654;2022-12-07T04:47:58;9.80;;;7.07;;
20884;SDS011;10602;48.000;9.654;2022-12-07T04:50:25;16.90;;;10.60;;
20884;SDS011;10602;48.000;9.654;2022-12-07T04:52:53;18.63;;;10.97;;
20884;SDS011;10602;48.000;9.654;2022-12-07T04:55:20;13.53;;;9.33;;
20884;SDS011;10602;48.000;9.654;2022-12-07T04:57:48;14.23;;;9.33;;
20884;SDS011;10602;48.000;9.654;2022-12-07T05:00:15;10.23;;;8.03;;
20884;SDS011;10602;48.000;9.654;2022-12-07T05:02:43;10.97;;;8.27;;
20884;SDS011;10602;48.000;9.654;2022-12-07T05:05:10;13.73;;;10.60;;
20884;SDS011;10602;48.000;9.654;2022-12-07T05:07:38;12.73;;;10.13;;
20884;SDS011;10602;48.000;9.654;2022-12-07T05:10:05;12.63;;;8.80;;
20884;SDS011;10602;48.000;9.654;2022-12-07T05:12:33;10.50;;;8.00;;
20884;SDS011;10602;48.000;9.654;2022-12-07T05:15:01;9.33;;;7.43;;
20884;SDS011;10602;48.000;9.654;2022-12-07T05:17:29;9.40;;;6.57;;
20884;SDS011;10602;48.000;9.654;2022-12-07T05:19:56;9.20;;;7.23;;
20884;SDS011;10602;48.000;9.654;2022-12-07T05:22:24;10.53;;;7.23;;
20884;SDS011;10602;48.000;9.654;2022-12-07T05:24:53;8.10;;;6.73;;
20884;SDS011;10602;48.000;9.654;2022-12-07T05:27:22;9.90;;;6.83;;
20884;SDS011;10602;48.000;9.654;2022-12-07T05:29:49;10.63;;;7.37;;
20884;SDS011;10602;48.000;9.654;2022-12-07T05:32:17;9.57;;;7.30;;
20884;SDS011;10602;48.000;9.654;2022-12-07T07:49:10;16.07;;;10.90;;
20884;SDS011;10602;48.000;9.654;2022-12-07T07:51:38;18.53;;;13.10;;
20884;SDS011;10602;48.000;9.654;2022-12-07T07:54:05;11.83;;;9.10;;
20884;SDS011;10602;48.000;9.654;2022-12-07T07:56:33;11.80;;;9.50;;
20884;SDS011;10602;48.000;9.654;2022-12-07T07:59:00;14.73;;;10.63;;
20884;SDS011;10602;48.000;9.654;2022-12-07T08:01:28;14.67;;;10.90;;
20884;SDS011;10602;48.000;9.654;2022-12-07T08:03:55;11.03;;;8.70;;
20884;SDS011;10602;48.000;9.654;2022-12-07T08:06:23;11.10;;;7.87;;
20884;SDS011;10602;48.000;9.654;2022-12-07T08:08:50;12.90;;;9.30;;
20884;SDS011;10602;48.000;9.654;2022-12-07T08:11:18;12.27;;;9.23;;
20884;SDS011;10602;48.000;9.654;2022-12-07T08:13:46;12.17;;;9.47;;
20884;SDS011;10602;48.000;9.654;2022-12-07T08:16:13;12.87;;;9.53;;
20884;SDS011;10602;48.000;9.654;2022-12-07T08:18:41;13.67;;;10.37;;
20884;SDS011;10602;48.000;9.654;2022-12-07T08:21:10;14.27;;;11.07;;
20884;SDS011;10602;48.000;9.654;2022-12-07T08:23:39;15.50;;;11.83;;
20884;SDS011;10602;48.000;9.654;2022-12-07T08:26:08;14.37;;;11.17;;
20884;SDS011;10602;48.000;9.654;2022-12-07T08:28:37;13.70;;;9.60;;
20884;SDS011;10602;48.000;9.654;2022-12-07T08:31:06;13.17;;;9.87;;
20884;SDS011;10602;48.000;9.654;2022-12-07T08:33:35;11.70;;;9.27;;
20884;SDS011;10602;48.000;9.654;2022-12-07T08:36:04;10.20;;;8.00;;
20884;SDS011;10602;48.000;9.654;2022-12-07T08:38:34;9.83;;;7.60;;
20884;SDS011;10602;48.000;9.654;2022-12-07T08:41:02;11.07;;;8.70;;
20884;SDS011;10602;48.000;9.654;2022-12-07T08:43:30;10.93;;;8.63;;
20884;SDS011;10602;48.000;9.654;2022-12-07T08:48:58;7.77;;;6.97;;
20884;SDS011;10602;48.000;9.654;2022-12-07T08:51:18;7.90;;;6.73;;
20884;SDS011;10602;48.000;9.654;2022-12-07T08:53:48;8.63;;;7.30;;
20884;SDS011;10602;48.000;9.654;2022-12-07T08:56:17;8.23;;;6.43;;
20884;SDS011;10602;48.000;9.654;2022-12-07T08:58:45;9.47;;;8.43;;
20884;SDS011;10602;48.000;9.654;2022-12-07T09:01:13;8.53;;;7.13;;
20884;SDS011;10602;48.000;9.654;2022-12-07T09:03:41;10.07;;;8.00;;
20884;SDS011;10602;48.000;9.654;2022-12-07T09:06:08;11.93;;;8.27;;
20884;SDS011;10602;48.000;9.654;2022-12-07T09:08:38;11.33;;;8.43;;
20884;SDS011;10602;48.000;9.654;2022-12-07T09:11:07;12.33;;;8.20;;
20884;SDS011;10602;48.000;9.654;2022-12-07T09:13:34;12.37;;;8.80;;
20884;SDS011;10602;48.000;9.654;2022-12-07T09:16:03;10.30;;;8.03;;
20884;SDS011;10602;48.000;9.654;2022-12-07T09:18:31;10.53;;;8.00;;
20884;SDS011;10602;48.000;9.654;2022-12-07T09:20:59;8.80;;;7.43;;
20884;SDS011;10602;48.000;9.654;2022-12-07T09:23:26;9.80;;;7.80;;
20884;SDS011;10602;48.000;9.654;2022-12-07T09:25:54;10.87;;;7.73;;
20884;SDS011;10602;48.000;9.654;2022-12-07T09:28:23;9.30;;;8.30;;
20884;SDS011;10602;48.000;9.654;2022-12-07T09:30:50;9.57;;;7.13;;
20884;SDS011;10602;48.000;9.654;2022-12-07T09:33:18;10.93;;;7.47;;
20884;SDS011;10602;48.000;9.654;2022-12-07T09:35:49;9.33;;;7.47;;
20884;SDS011;10602;48.000;9.654;2022-12-07T09:38:18;9.73;;;7.30;;
20884;SDS011;10602;48.000;9.654;2022-12-07T09:40:46;8.83;;;7.57;;
20884;SDS011;10602;48.000;9.654;2022-12-07T09:43:24;9.60;;;7.40;;
20884;SDS011;10602;48.000;9.654;2022-12-07T09:45:44;8.50;;;6.50;;
20884;SDS011;10602;48.000;9.654;2022-12-07T09:48:16;9.20;;;7.50;;
20884;SDS011;10602;48.000;9.654;2022-12-07T09:50:46;8.83;;;6.97;;
20884;SDS011;10602;48.000;9.654;2022-12-07T09:53:16;8.47;;;7.53;;
20884;SDS011;10602;48.000;9.654;2022-12-07T09:55:48;8.80;;;7.40;;
20884;SDS011;10602;48.000;9.654;2022-12-07T09:58:18;9.57;;;7.50;;
20884;SDS011;10602;48.000;9.654;2022-12-07T10:00:46;8.47;;;7.03;;
20884;SDS011;10602;48.000;9.654;2022-12-07T10:03:14;9.87;;;7.57;;
20884;SDS011;10602;48.000;9.654;2022-12-07T10:05:45;9.97;;;7.97;;
20884;SDS011;10602;48.000;9.654;2022-12-07T10:08:15;9.73;;;8.67;;
20884;SDS011;10602;48.000;9.654;2022-12-07T10:10:43;10.07;;;7.97;;
20884;SDS011;10602;48.000;9.654;2022-12-07T10:13:12;10.60;;;8.20;;
20884;SDS011;10602;48.000;9.654;2022-12-07T10:15:45;9.40;;;7.80;;
20884;SDS011;10602;48.000;9.654;2022-12-07T10:18:33;9.10;;;7.77;;
20884;SDS011;10602;48.000;9.654;2022-12-07T10:23:58;8.63;;;7.63;;
20884;SDS011;10602;48.000;9.654;2022-12-07T10:26:32;9.57;;;7.70;;
20884;SDS011;10602;48.000;9.654;2022-12-07T10:29:02;8.40;;;6.93;;
20884;SDS011;10602;48.000;9.654;2022-12-07T10:31:43;9.97;;;8.97;;
20884;SDS011;10602;48.000;9.654;2022-12-07T10:34:22;7.80;;;7.00;;
20884;SDS011;10602;48.000;9.654;2022-12-07T10:36:52;9.17;;;7.53;;
20884;SDS011;10602;48.000;9.654;2022-12-07T10:39:22;8.37;;;7.47;;
20884;SDS011;10602;48.000;9.654;2022-12-07T10:41:54;8.47;;;7.57;;
20884;SDS011;10602;48.000;9.654;2022-12-07T10:44:27;7.73;;;6.70;;
20884;SDS011;10602;48.000;9.654;2022-12-07T10:55:22;7.33;;;6.23;;
20884;SDS011;10602;48.000;9.654;2022-12-07T11:00:29;7.70;;;6.87;;
20884;SDS011;10602;48.000;9.654;2022-12-07T11:03:25;7.20;;;6.27;;
20884;SDS011;10602;48.000;9.654;2022-12-07T11:11:36;7.33;;;6.50;;
20884;SDS011;10602;48.000;9.654;2022-12-07T11:19:46;7.33;;;6.63;;
20884;SDS011;10602;48.000;9.654;2022-12-07T11:25:24;19.63;;;17.90;;
20884;SDS011;10602;48.000;9.654;2022-12-07T11:27:59;9.27;;;8.37;;
20884;SDS011;10602;48.000;9.654;2022-12-07T11:30:32;8.70;;;7.80;;
20884;SDS011;10602;48.000;9.654;2022-12-07T11:33:04;8.63;;;6.93;;
20884;SDS011;10602;48.000;9.654;2022-12-07T11:38:14;10.40;;;7.90;;
20884;SDS011;10602;48.000;9.654;2022-12-07T11:40:47;8.37;;;7.47;;
20884;SDS011;10602;48.000;9.654;2022-12-07T11:43:18;8.43;;;7.53;;
20884;SDS011;10602;48.000;9.654;2022-12-07T11:48:46;8.40;;;7.50;;
20884;SDS011;10602;48.000;9.654;2022-12-07T11:51:33;8.00;;;7.17;;
20884;SDS011;10602;48.000;9.654;2022-12-07T11:54:11;8.13;;;7.33;;
20884;SDS011;10602;48.000;9.654;2022-12-07T11:56:34;8.67;;;7.50;;
20884;SDS011;10602;48.000;9.654;2022-12-07T11:59:13;8.10;;;7.17;;
20884;SDS011;10602;48.000;9.654;2022-12-07T12:01:48;8.03;;;7.03;;
20884;SDS011;10602;48.000;9.654;2022-12-07T12:04:32;7.70;;;6.60;;
20884;SDS011;10602;48.000;9.654;2022-12-07T12:07:05;8.20;;;7.17;;
20884;SDS011;10602;48.000;9.654;2022-12-07T12:09:40;9.80;;;8.00;;
20884;SDS011;10602;48.000;9.654;2022-12-07T12:12:11;19.53;;;13.87;;
20884;SDS011;10602;48.000;9.654;2022-12-07T12:14:52;21.17;;;14.63;;
20884;SDS011;10602;48.000;9.654;2022-12-07T12:23:05;14.40;;;10.87;;
20884;SDS011;10602;48.000;9.654;2022-12-07T12:25:52;10.03;;;8.50;;
20884;SDS011;10602;48.000;9.654;2022-12-07T12:29:19;8.03;;;7.03;;
20884;SDS011;10602;48.000;9.654;2022-12-07T12:33:51;7.83;;;6.83;;
20884;SDS011;10602;48.000;9.654;2022-12-07T12:39:11;7.73;;;6.73;;
20884;SDS011;10602;48.000;9.654;2022-12-07T12:46:55;8.57;;;5.93;;
20884;SDS011;10602;48.000;9.654;2022-12-07T12:51:55;8.73;;;6.63;;
20884;SDS011;10602;48.000;9.654;2022-12-07T12:54:28;11.17;;;8.87;;
20884;SDS011;10602;48.000;9.654;2022-12-07T12:57:12;12.30;;;8.93;;
20884;SDS011;10602;48.000;9.654;2022-12-07T13:02:24;10.13;;;8.67;;
20884;SDS011;10602;48.000;9.654;2022-12-07T13:04:59;8.67;;;7.50;;
20884;SDS011;10602;48.000;9.654;2022-12-07T13:18:37;16.80;;;11.03;;
20884;SDS011;10602;48.000;9.654;2022-12-07T13:26:19;9.03;;;7.53;;
20884;SDS011;10602;48.000;9.654;2022-12-07T13:28:52;9.50;;;6.87;;
20884;SDS011;10602;48.000;9.654;2022-12-07T13:31:35;43.43;;;25.70;;
20884;SDS011;10602;48.000;9.654;2022-12-07T13:34:32;10.43;;;7.30;;
20884;SDS011;10602;48.000;9.654;2022-12-07T13:37:14;17.20;;;12.30;;
20884;SDS011;10602;48.000;9.654;2022-12-07T13:39:47;12.63;;;9.73;;
20884;SDS011;10602;48.000;9.654;2022-12-07T13:42:22;9.53;;;7.30;;
20884;SDS011;10602;48.000;9.654;2022-12-07T13:44:52;10.50;;;8.73;;
20884;SDS011;10602;48.000;9.654;2022-12-07T13:50:25;15.47;;;10.83;;
20884;SDS011;10602;48.000;9.654;2022-12-07T13:52:56;14.37;;;10.87;;
20884;SDS011;10602;48.000;9.654;2022-12-07T13:55:24;18.60;;;12.33;;
20884;SDS011;10602;48.000;9.654;2022-12-07T13:57:53;15.13;;;9.63;;
20884;SDS011;10602;48.000;9.654;2022-12-07T14:00:23;13.73;;;9.53;;
20884;SDS011;10602;48.000;9.654;2022-12-07T14:02:59;11.23;;;7.60;;
20884;SDS011;10602;48.000;9.654;2022-12-07T14:05:32;8.70;;;6.60;;
20884;SDS011;10602;48.000;9.654;2022-12-07T14:10:34;14.87;;;9.63;;
20884;SDS011;10602;48.000;9.654;2022-12-07T14:13:18;16.40;;;10.70;;
20884;SDS011;10602;48.000;9.654;2022-12-07T14:15:39;14.83;;;10.73;;
20884;SDS011;10602;48.000;9.654;2022-12-07T14:18:24;14.60;;;9.90;;
20884;SDS011;10602;48.000;9.654;2022-12-07T14:20:38;13.03;;;9.70;;
20884;SDS011;10602;48.000;9.654;2022-12-07T14:23:21;14.40;;;10.27;;
20884;SDS011;10602;48.000;9.654;2022-12-07T14:25:52;14.10;;;10.20;;
20884;SDS011;10602;48.000;9.654;2022-12-07T14:28:27;11.10;;;8.43;;
20884;SDS011;10602;48.000;9.654;2022-12-07T14:30:57;10.90;;;8.30;;
20884;SDS011;10602;48.000;9.654;2022-12-07T14:33:25;12.77;;;9.63;;
20884;SDS011;10602;48.000;9.654;2022-12-07T14:35:54;12.10;;;7.97;;
20884;SDS011;10602;48.000;9.654;2022-12-07T14:38:24;14.30;;;9.67;;
20884;SDS011;10602;48.000;9.654;2022-12-07T14:40:52;12.70;;;9.27;;
20884;SDS011;10602;48.000;9.654;2022-12-07T14:43:22;10.77;;;8.90;;
20884;SDS011;10602;48.000;9.654;2022-12-07T14:45:50;13.30;;;9.40;;
20884;SDS011;10602;48.000;9.654;2022-12-07T14:48:18;18.73;;;10.40;;
20884;SDS011;10602;48.000;9.654;2022-12-07T14:50:49;19.57;;;14.37;;
20884;SDS011;10602;48.000;9.654;2022-12-07T14:53:27;14.83;;;11.50;;
20884;SDS011;10602;48.000;9.654;2022-12-07T14:55:49;17.07;;;12.57;;
20884;SDS011;10602;48.000;9.654;2022-12-07T14:58:16;13.60;;;10.07;;
20884;SDS011;10602;48.000;9.654;2022-12-07T15:00:44;16.33;;;11.33;;
20884;SDS011;10602;48.000;9.654;2022-12-07T15:03:13;17.03;;;11.00;;
20884;SDS011;10602;48.000;9.654;2022-12-07T15:05:40;12.00;;;9.57;;
20884;SDS011;10602;48.000;9.654;2022-12-07T15:08:09;12.63;;;9.70;;
20884;SDS011;10602;48.000;9.654;2022-12-07T15:10:39;12.67;;;9.50;;
20884;SDS011;10602;48.000;9.654;2022-12-07T15:13:06;14.13;;;10.97;;
20884;SDS011;10602;48.000;9.654;2022-12-07T15:15:52;17.37;;;12.37;;
20884;SDS011;10602;48.000;9.654;2022-12-07T15:18:21;16.90;;;12.17;;
20884;SDS011;10602;48.000;9.654;2022-12-07T15:20:49;18.50;;;13.13;;
20884;SDS011;10602;48.000;9.654;2022-12-07T15:23:17;23.23;;;14.77;;
20884;SDS011;10602;48.000;9.654;2022-12-07T15:25:45;24.47;;;16.03;;
20884;SDS011;10602;48.000;9.654;2022-12-07T15:28:14;28.90;;;18.40;;
20884;SDS011;10602;48.000;9.654;2022-12-07T15:30:42;28.50;;;16.50;;
20884;SDS011;10602;48.000;9.654;2022-12-07T15:33:11;27.47;;;16.27;;
20884;SDS011;10602;48.000;9.654;2022-12-07T15:35:39;29.30;;;17.00;;
20884;SDS011;10602;48.000;9.654;2022-12-07T15:38:07;26.53;;;15.53;;
20884;SDS011;10602;48.000;9.654;2022-12-07T15:40:34;28.77;;;16.63;;
20884;SDS011;10602;48.000;9.654;2022-12-07T15:43:02;31.27;;;17.60;;
20884;SDS011;10602;48.000;9.654;2022-12-07T15:45:30;33.93;;;18.50;;
20884;SDS011;10602;48.000;9.654;2022-12-07T15:47:58;28.20;;;16.00;;
20884;SDS011;10602;48.000;9.654;2022-12-07T15:50:27;23.73;;;15.10;;
20884;SDS011;10602;48.000;9.654;2022-12-07T15:52:54;26.67;;;15.53;;
20884;SDS011;10602;48.000;9.654;2022-12-07T15:55:21;36.53;;;19.40;;
20884;SDS011;10602;48.000;9.654;2022-12-07T15:57:49;40.27;;;20.07;;
20884;SDS011;10602;48.000;9.654;2022-12-07T16:00:17;36.80;;;19.13;;
20884;SDS011;10602;48.000;9.654;2022-12-07T16:02:45;26.90;;;15.73;;
20884;SDS011;10602;48.000;9.654;2022-12-07T16:05:15;18.67;;;12.80;;
20884;SDS011;10602;48.000;9.654;2022-12-07T16:08:01;16.93;;;10.63;;
20884;SDS011;10602;48.000;9.654;2022-12-07T16:10:28;14.03;;;9.33;;
20884;SDS011;10602;48.000;9.654;2022-12-07T16:12:56;17.67;;;11.50;;
20884;SDS011;10602;48.000;9.654;2022-12-07T16:15:23;19.40;;;12.87;;
20884;SDS011;10602;48.000;9.654;2022-12-07T16:17:52;15.70;;;10.90;;
20884;SDS011;10602;48.000;9.654;2022-12-07T16:20:21;15.57;;;10.40;;
20884;SDS011;10602;48.000;9.654;2022-12-07T16:22:50;13.53;;;9.90;;
20884;SDS011;10602;48.000;9.654;2022-12-07T16:25:19;15.27;;;10.00;;
20884;SDS011;10602;48.000;9.654;2022-12-07T16:27:46;14.70;;;10.30;;
20884;SDS011;10602;48.000;9.654;2022-12-07T16:30:14;14.37;;;9.83;;
20884;SDS011;10602;48.000;9.654;2022-12-07T16:32:45;13.97;;;9.57;;
20884;SDS011;10602;48.000;9.654;2022-12-07T16:35:12;22.30;;;15.00;;
20884;SDS011;10602;48.000;9.654;2022-12-07T16:37:43;26.20;;;17.43;;
20884;SDS011;10602;48.000;9.654;2022-12-07T16:40:10;22.53;;;14.73;;
20884;SDS011;10602;48.000;9.654;2022-12-07T16:42:40;46.33;;;27.83;;
20884;SDS011;10602;48.000;9.654;2022-12-07T16:45:07;39.37;;;22.83;;
20884;SDS011;10602;48.000;9.654;2022-12-07T16:47:37;45.10;;;25.70;;
20884;SDS011;10602;48.000;9.654;2022-12-07T16:50:04;45.30;;;27.37;;
20884;SDS011;10602;48.000;9.654;2022-12-07T16:52:33;34.97;;;21.17;;
20884;SDS011;10602;48.000;9.654;2022-12-07T16:55:01;30.57;;;20.27;;
20884;SDS011;10602;48.000;9.654;2022-12-07T16:57:28;32.63;;;21.90;;
20884;SDS011;10602;48.000;9.654;2022-12-07T16:59:57;26.13;;;18.20;;
20884;SDS011;10602;48.000;9.654;2022-12-07T17:02:25;33.07;;;20.47;;
20884;SDS011;10602;48.000;9.654;2022-12-07T17:04:53;34.43;;;22.93;;
20884;SDS011;10602;48.000;9.654;2022-12-07T17:07:21;30.03;;;20.80;;
20884;SDS011;10602;48.000;9.654;2022-12-07T17:09:48;31.37;;;20.67;;
20884;SDS011;10602;48.000;9.654;2022-12-07T17:12:16;28.80;;;17.33;;
20884;SDS011;10602;48.000;9.654;2022-12-07T17:14:44;30.63;;;20.50;;
20884;SDS011;10602;48.000;9.654;2022-12-07T17:17:29;32.40;;;23.30;;
20884;SDS011;10602;48.000;9.654;2022-12-07T17:19:57;31.27;;;21.40;;
20884;SDS011;10602;48.000;9.654;2022-12-07T17:22:25;36.43;;;20.83;;
20884;SDS011;10602;48.000;9.654;2022-12-07T17:24:52;30.27;;;19.67;;
20884;SDS011;10602;48.000;9.654;2022-12-07T17:27:20;33.50;;;17.23;;
20884;SDS011;10602;48.000;9.654;2022-12-07T17:29:47;27.77;;;17.40;;
20884;SDS011;10602;48.000;9.654;2022-12-07T17:32:15;25.30;;;16.10;;
20884;SDS011;10602;48.000;9.654;2022-12-07T17:34:42;26.23;;;15.60;;
20884;SDS011;10602;48.000;9.654;2022-12-07T17:37:10;24.03;;;16.07;;
20884;SDS011;10602;48.000;9.654;2022-12-07T17:39:38;26.33;;;16.13;;
20884;SDS011;10602;48.000;9.654;2022-12-07T17:42:05;26.03;;;14.90;;
20884;SDS011;10602;48.000;9.654;2022-12-07T17:44:52;27.27;;;15.77;;
20884;SDS011;10602;48.000;9.654;2022-12-07T17:47:19;28.83;;;18.27;;
20884;SDS011;10602;48.000;9.654;2022-12-07T17:49:47;32.27;;;18.83;;
20884;SDS011;10602;48.000;9.654;2022-12-07T17:52:14;71.50;;;23.13;;
20884;SDS011;10602;48.000;9.654;2022-12-07T17:55:00;58.43;;;19.07;;
20884;SDS011;10602;48.000;9.654;2022-12-07T17:57:27;45.87;;;18.70;;
20884;SDS011;10602;48.000;9.654;2022-12-07T17:59:55;50.97;;;14.80;;
20884;SDS011;10602;48.000;9.654;2022-12-07T18:02:23;34.33;;;16.10;;
20884;SDS011;10602;48.000;9.654;2022-12-07T18:04:50;47.00;;;14.23;;
20884;SDS011;10602;48.000;9.654;2022-12-07T18:07:18;26.70;;;12.80;;
20884;SDS011;10602;48.000;9.654;2022-12-07T18:09:45;33.73;;;12.60;;
20884;SDS011;10602;48.000;9.654;2022-12-07T18:12:13;46.10;;;13.17;;
20884;SDS011;10602;48.000;9.654;2022-12-07T18:14:41;58.10;;;13.47;;
20884;SDS011;10602;48.000;9.654;2022-12-07T18:17:08;53.53;;;15.33;;
20884;SDS011;10602;48.000;9.654;2022-12-07T18:19:36;62.00;;;14.83;;
20884;SDS011;10602;48.000;9.654;2022-12-07T18:22:03;53.40;;;14.27;;
20884;SDS011;10602;48.000;9.654;2022-12-07T18:24:31;30.13;;;12.80;;
20884;SDS011;10602;48.000;9.654;2022-12-07T18:26:58;76.57;;;15.37;;
20884;SDS011;10602;48.000;9.654;2022-12-07T18:29:26;74.63;;;30.60;;
20884;SDS011;10602;48.000;9.654;2022-12-07T18:31:53;45.90;;;12.47;;
20884;SDS011;10602;48.000;9.654;2022-12-07T18:34:21;35.13;;;14.63;;
20884;SDS011;10602;48.000;9.654;2022-12-07T18:36:48;76.80;;;46.27;;
20884;SDS011;10602;48.000;9.654;2022-12-07T18:39:16;66.23;;;21.23;;
20884;SDS011;10602;48.000;9.654;2022-12-07T18:41:45;54.23;;;14.53;;
20884;SDS011;10602;48.000;9.654;2022-12-07T18:44:13;49.13;;;15.27;;
20884;SDS011;10602;48.000;9.654;2022-12-07T18:46:41;48.33;;;16.87;;
20884;SDS011;10602;48.000;9.654;2022-12-07T18:49:12;35.90;;;13.67;;
20884;SDS011;10602;48.000;9.654;2022-12-07T18:51:40;31.10;;;11.80;;
20884;SDS011;10602;48.000;9.654;2022-12-07T18:54:08;50.07;;;14.97;;
20884;SDS011;10602;48.000;9.654;2022-12-07T18:56:35;58.33;;;19.57;;
20884;SDS011;10602;48.000;9.654;2022-12-07T18:59:03;44.97;;;18.43;;
20884;SDS011;10602;48.000;9.654;2022-12-07T19:01:50;37.83;;;17.07;;
20884;SDS011;10602;48.000;9.654;2022-12-07T19:04:19;35.67;;;17.77;;
20884;SDS011;10602;48.000;9.654;2022-12-07T19:06:47;31.43;;;18.03;;
20884;SDS011;10602;48.000;9.654;2022-12-07T19:09:15;35.50;;;17.13;;
20884;SDS011;10602;48.000;9.654;2022-12-07T19:11:43;33.87;;;13.00;;